createdAt,value
2023-02-14T00:00:23.140Z,6.10
2023-02-14T00:02:52.571Z,6.10
2023-02-14T00:05:23.039Z,6.10
2023-02-14T00:07:53.865Z,6.10
2023-02-14T00:10:25.874Z,6.10
2023-02-14T00:12:55.891Z,6.10
2023-02-14T00:15:26.511Z,6.10
2023-02-14T00:18:03.147Z,6.10
2023-02-14T00:20:33.107Z,6.10
2023-02-14T00:23:04.095Z,6.10
2023-02-14T00:25:36.128Z,6.10
2023-02-14T00:28:07.184Z,6.10
2023-02-14T00:30:36.746Z,6.10
2023-02-14T00:33:07.339Z,6.10
2023-02-14T00:35:39.537Z,6.10
2023-02-14T00:38:08.897Z,6.10
2023-02-14T00:40:39.972Z,6.10
2023-02-14T00:43:09.331Z,6.10
2023-02-14T00:45:40.218Z,6.10
2023-02-14T00:48:09.532Z,6.10
2023-02-14T00:50:39.649Z,6.10
2023-02-14T00:53:10.116Z,6.10
2023-02-14T00:55:39.660Z,6.10
2023-02-14T00:58:10.145Z,6.10
2023-02-14T01:00:39.656Z,6.10
2023-02-14T01:03:10.556Z,6.10
2023-02-14T01:05:41.403Z,6.10
2023-02-14T01:08:11.853Z,6.00
2023-02-14T01:10:43.754Z,6.10
2023-02-14T01:13:15.310Z,6.00
2023-02-14T01:15:47.721Z,6.00
2023-02-14T01:18:19.054Z,6.10
2023-02-14T01:20:50.337Z,6.00
2023-02-14T01:23:19.655Z,6.00
2023-02-14T01:25:54.447Z,6.00
2023-02-14T01:28:25.040Z,6.00
2023-02-14T01:30:54.522Z,6.00
2023-02-14T01:33:23.871Z,6.00
2023-02-14T01:36:08.134Z,6.00
2023-02-14T01:38:39.231Z,6.00
2023-02-14T01:41:08.709Z,6.00
2023-02-14T01:43:55.364Z,6.00
2023-02-14T01:46:28.696Z,6.00
2023-02-14T01:49:04.912Z,6.00
2023-02-14T01:51:39.064Z,6.00
2023-02-14T01:54:10.454Z,6.00
2023-02-14T01:56:44.129Z,6.00
2023-02-14T01:59:17.802Z,6.00
2023-02-14T02:01:49.705Z,6.00
2023-02-14T02:04:27.949Z,6.00
2023-02-14T02:07:01.697Z,6.00
2023-02-14T02:09:55.190Z,6.00
2023-02-14T02:12:25.594Z,6.00
2023-02-14T02:14:58.777Z,6.00
2023-02-14T02:17:39.435Z,6.00
2023-02-14T02:20:34.362Z,6.00
2023-02-14T02:23:23.386Z,6.00
2023-02-14T02:26:30.913Z,6.00
2023-02-14T02:29:06.110Z,6.00
2023-02-14T02:31:50.684Z,5.90
2023-02-14T02:34:35.448Z,5.90
2023-02-14T02:37:13.694Z,5.90
2023-02-14T02:40:01.367Z,5.90
2023-02-14T02:42:44.440Z,5.90
2023-02-14T02:45:33.300Z,5.90
2023-02-14T02:48:15.158Z,5.90
2023-02-14T02:51:08.400Z,5.90
2023-02-14T02:53:43.585Z,5.90
2023-02-14T02:56:44.002Z,5.90
2023-02-14T02:59:25.813Z,5.90
2023-02-14T03:02:20.752Z,5.90
2023-02-14T03:04:54.090Z,5.90
2023-02-14T03:07:39.717Z,5.80
2023-02-14T03:10:23.569Z,5.90
2023-02-14T03:13:15.334Z,5.80
2023-02-14T03:15:48.035Z,5.80
2023-02-14T03:18:41.375Z,5.80
2023-02-14T03:21:38.566Z,5.80
2023-02-14T03:24:23.014Z,5.80
2023-02-14T03:27:01.063Z,5.80
2023-02-14T03:29:36.235Z,5.80
2023-02-14T03:32:20.546Z,5.80
2023-02-14T03:35:00.279Z,5.80
2023-02-14T03:37:56.632Z,5.80
2023-02-14T03:40:51.814Z,5.80
2023-02-14T03:43:24.485Z,5.80
2023-02-14T03:45:57.988Z,5.80
2023-02-14T03:48:30.720Z,5.80
2023-02-14T03:51:03.555Z,5.80
2023-02-14T03:53:36.235Z,5.80
2023-02-14T03:56:17.843Z,5.80
2023-02-14T03:58:50.278Z,5.80
2023-02-14T04:01:28.557Z,5.70
2023-02-14T04:04:00.317Z,5.70
2023-02-14T04:06:29.800Z,5.70
2023-02-14T04:08:59.261Z,5.70
2023-02-14T04:11:30.928Z,5.70
2023-02-14T04:14:00.370Z,5.70
2023-02-14T04:16:29.864Z,5.70
2023-02-14T04:19:17.709Z,5.80
2023-02-14T04:21:48.426Z,5.70
2023-02-14T04:24:18.171Z,5.70
2023-02-14T04:26:56.132Z,5.70
2023-02-14T04:29:25.534Z,5.70
2023-02-14T04:31:56.427Z,5.70
2023-02-14T04:34:26.370Z,5.70
2023-02-14T04:36:56.767Z,5.70
2023-02-14T04:39:26.055Z,5.70
2023-02-14T04:41:56.478Z,5.70
2023-02-14T04:44:27.035Z,5.60
2023-02-14T04:46:58.174Z,5.60
2023-02-14T04:49:27.657Z,5.60
2023-02-14T04:51:57.099Z,5.60
2023-02-14T04:54:26.612Z,5.60
2023-02-14T04:56:57.663Z,5.60
2023-02-14T04:59:28.535Z,5.60
2023-02-14T05:01:58.010Z,5.70
2023-02-14T05:04:28.628Z,5.60
2023-02-14T05:06:58.011Z,5.60
2023-02-14T05:09:27.479Z,5.60
2023-02-14T05:11:57.080Z,5.60
2023-02-14T05:14:26.453Z,5.60
2023-02-14T05:16:55.949Z,5.60
2023-02-14T05:19:25.648Z,5.60
2023-02-14T05:21:56.488Z,5.60
2023-02-14T05:24:25.929Z,5.60
2023-02-14T05:26:56.131Z,5.60
2023-02-14T05:29:25.582Z,5.60
2023-02-14T05:31:55.590Z,5.60
2023-02-14T05:34:24.975Z,5.60
2023-02-14T05:36:57.646Z,5.60
2023-02-14T05:39:27.262Z,5.60
2023-02-14T05:41:59.340Z,5.60
2023-02-14T05:44:28.603Z,5.60
2023-02-14T05:46:58.473Z,5.60
2023-02-14T05:49:28.515Z,5.60
2023-02-14T05:51:57.892Z,5.60
2023-02-14T05:54:27.247Z,5.60
2023-02-14T05:56:57.835Z,5.60
2023-02-14T05:59:28.683Z,5.60
2023-02-14T06:01:59.971Z,5.60
2023-02-14T06:04:30.703Z,5.60
2023-02-14T06:07:00.377Z,5.60
2023-02-14T06:09:30.994Z,5.60
2023-02-14T06:12:00.477Z,5.60
2023-02-14T06:14:29.827Z,5.60
2023-02-14T06:16:59.280Z,5.60
2023-02-14T06:19:30.110Z,5.60
2023-02-14T06:22:00.514Z,5.60
2023-02-14T06:24:29.042Z,5.60
2023-02-14T06:27:01.181Z,5.60
2023-02-14T06:29:31.598Z,5.60
2023-02-14T06:32:02.246Z,5.60
2023-02-14T06:34:33.614Z,5.60
2023-02-14T06:37:02.945Z,5.60
2023-02-14T06:39:32.348Z,5.60
2023-02-14T06:42:03.243Z,5.60
2023-02-14T06:44:33.780Z,5.60
2023-02-14T06:47:03.132Z,5.60
2023-02-14T06:49:32.575Z,5.60
2023-02-14T06:52:02.082Z,5.60
2023-02-14T06:54:31.584Z,5.60
2023-02-14T06:57:01.088Z,5.60
2023-02-14T06:59:31.787Z,5.60
2023-02-14T07:02:01.242Z,5.60
2023-02-14T07:04:30.692Z,5.60
2023-02-14T07:07:01.530Z,5.60
2023-02-14T07:09:31.820Z,5.60
2023-02-14T07:12:01.032Z,5.60
2023-02-14T07:14:30.306Z,5.60
2023-02-14T07:16:59.776Z,5.60
2023-02-14T07:19:30.394Z,5.60
2023-02-14T07:24:52.526Z,5.70
2023-02-14T07:27:22.659Z,5.70
2023-02-14T07:29:52.211Z,5.70
2023-02-14T07:32:23.337Z,5.70
2023-02-14T07:34:54.942Z,5.70
2023-02-14T07:37:25.809Z,5.70
2023-02-14T07:39:55.262Z,5.70
2023-02-14T07:42:25.365Z,5.80
2023-02-14T07:44:56.104Z,5.70
2023-02-14T07:47:26.589Z,5.70
2023-02-14T07:49:56.029Z,5.70
2023-02-14T07:52:26.455Z,5.80
2023-02-14T07:54:56.379Z,5.80
2023-02-14T07:57:25.666Z,5.80
2023-02-14T07:59:56.282Z,5.80
2023-02-14T08:02:25.595Z,5.90
2023-02-14T08:04:56.773Z,5.90
2023-02-14T08:07:27.418Z,5.90
2023-02-14T08:09:58.051Z,5.90
2023-02-14T08:12:45.357Z,5.90
2023-02-14T08:15:34.386Z,5.90
2023-02-14T08:18:04.563Z,5.90
2023-02-14T08:20:35.479Z,5.90
2023-02-14T08:23:04.959Z,6.00
2023-02-14T08:25:34.482Z,6.00
2023-02-14T08:28:06.274Z,6.10
2023-02-14T08:30:42.265Z,6.10
2023-02-14T08:33:13.260Z,6.10
2023-02-14T08:35:42.817Z,6.20
2023-02-14T08:38:14.241Z,6.20
2023-02-14T08:40:44.402Z,6.20
2023-02-14T08:43:16.055Z,6.30
2023-02-14T08:45:48.455Z,6.30
2023-02-14T08:48:17.984Z,6.30
2023-02-14T08:50:47.346Z,6.40
2023-02-14T08:53:16.837Z,6.40
2023-02-14T08:55:47.643Z,6.40
2023-02-14T08:58:19.126Z,6.40
2023-02-14T09:00:48.474Z,6.50
2023-02-14T09:03:17.929Z,6.50
2023-02-14T09:05:47.334Z,6.60
2023-02-14T09:08:16.825Z,6.50
2023-02-14T09:10:47.394Z,6.60
2023-02-14T09:13:16.728Z,6.60
2023-02-14T09:15:47.859Z,6.70
2023-02-14T09:18:17.290Z,6.70
2023-02-14T09:20:46.589Z,6.80
2023-02-14T09:23:17.011Z,6.80
2023-02-14T09:25:46.709Z,6.80
2023-02-14T09:28:15.960Z,6.90
2023-02-14T09:30:45.372Z,6.90
2023-02-14T09:33:14.732Z,6.90
2023-02-14T09:38:52.665Z,7.00
2023-02-14T09:41:36.530Z,7.10
2023-02-14T09:44:28.399Z,7.10
2023-02-14T09:47:00.846Z,7.20
2023-02-14T09:49:35.973Z,7.20
2023-02-14T09:52:10.031Z,7.30
2023-02-14T09:54:42.991Z,7.30
2023-02-14T09:57:17.992Z,7.30
2023-02-14T10:00:17.855Z,7.30
2023-02-14T10:03:10.648Z,7.40
2023-02-14T10:05:58.039Z,7.40
2023-02-14T10:08:56.448Z,7.50
2023-02-14T10:11:27.356Z,7.50
2023-02-14T10:14:15.014Z,7.60
2023-02-14T10:16:47.457Z,7.60
2023-02-14T10:19:31.819Z,7.60
2023-02-14T10:22:06.394Z,7.70
2023-02-14T10:24:45.038Z,7.70
2023-02-14T10:27:35.827Z,7.80
2023-02-14T10:30:22.295Z,7.80
2023-02-14T10:32:54.831Z,7.80
2023-02-14T10:35:45.061Z,7.80
2023-02-14T10:38:20.599Z,7.80
2023-02-14T10:41:17.603Z,7.80
2023-02-14T10:43:55.927Z,7.90
2023-02-14T10:46:43.445Z,7.90
2023-02-14T10:49:32.404Z,8.00
2023-02-14T10:52:08.195Z,8.00
2023-02-14T10:54:43.615Z,8.00
2023-02-14T10:57:19.067Z,8.00
2023-02-14T11:00:03.117Z,8.00
2023-02-14T11:02:36.070Z,8.00
2023-02-14T11:05:07.121Z,8.10
2023-02-14T11:07:37.169Z,8.10
2023-02-14T11:10:09.644Z,8.10
2023-02-14T11:12:41.664Z,8.10
2023-02-14T11:15:23.439Z,8.20
2023-02-14T11:18:07.942Z,8.20
2023-02-14T11:20:37.339Z,8.20
2023-02-14T11:23:24.876Z,8.20
2023-02-14T11:25:56.368Z,8.30
2023-02-14T11:28:25.889Z,8.30
2023-02-14T11:30:57.286Z,8.30
2023-02-14T11:33:41.861Z,8.40
2023-02-14T11:36:14.185Z,8.30
2023-02-14T11:38:46.107Z,8.40
2023-02-14T11:41:18.087Z,8.40
2023-02-14T11:43:49.301Z,8.40
2023-02-14T11:46:24.569Z,8.40
2023-02-14T11:49:02.847Z,8.40
2023-02-14T11:51:41.857Z,8.50
2023-02-14T11:54:14.518Z,8.50
2023-02-14T11:56:50.044Z,8.50
2023-02-14T11:59:31.020Z,8.50
2023-02-14T12:02:03.755Z,8.50
2023-02-14T12:04:45.643Z,8.60
2023-02-14T12:07:23.830Z,8.60
2023-02-14T12:10:11.559Z,8.60
2023-02-14T12:13:02.175Z,8.70
2023-02-14T12:15:42.573Z,8.70
2023-02-14T12:18:31.713Z,8.80
2023-02-14T12:21:36.538Z,8.80
2023-02-14T12:24:32.897Z,8.70
2023-02-14T12:27:17.126Z,8.80
2023-02-14T12:29:55.257Z,8.80
2023-02-14T12:32:27.368Z,8.80
2023-02-14T12:35:03.075Z,8.80
2023-02-14T12:37:38.376Z,8.80
2023-02-14T12:40:30.471Z,8.70
2023-02-14T12:43:05.834Z,8.60
2023-02-14T12:45:54.760Z,8.70
2023-02-14T12:48:35.411Z,8.70
2023-02-14T12:51:13.562Z,8.80
2023-02-14T12:53:57.732Z,8.80
2023-02-14T12:56:49.545Z,8.80
2023-02-14T12:59:40.860Z,8.90
2023-02-14T13:02:47.796Z,8.90
2023-02-14T13:05:32.177Z,8.90
2023-02-14T13:08:11.264Z,8.90
2023-02-14T13:10:58.810Z,9.00
2023-02-14T13:13:55.970Z,9.00
2023-02-14T13:16:46.314Z,9.00
2023-02-14T13:19:18.766Z,9.00
2023-02-14T13:21:49.741Z,9.00
2023-02-14T13:24:28.357Z,9.00
2023-02-14T13:27:01.090Z,9.10
2023-02-14T13:29:36.070Z,9.00
2023-02-14T13:32:06.399Z,9.00
2023-02-14T13:34:38.713Z,9.10
2023-02-14T13:37:10.976Z,9.10
2023-02-14T13:39:46.708Z,9.10
2023-02-14T13:42:35.342Z,9.00
2023-02-14T13:45:04.955Z,9.00
2023-02-14T13:47:34.378Z,9.10
2023-02-14T13:50:05.365Z,9.10
2023-02-14T13:52:49.048Z,9.10
2023-02-14T13:55:21.458Z,9.10
2023-02-14T13:58:17.865Z,9.10
2023-02-14T14:00:49.113Z,9.10
2023-02-14T14:03:33.424Z,9.10
2023-02-14T14:06:09.563Z,9.20
2023-02-14T14:08:48.300Z,9.10
2023-02-14T14:11:28.640Z,9.10
2023-02-14T14:14:15.151Z,9.10
2023-02-14T14:16:47.549Z,9.10
2023-02-14T14:19:25.886Z,9.10
2023-02-14T14:22:14.949Z,9.10
2023-02-14T14:24:56.478Z,9.10
2023-02-14T14:27:31.716Z,9.10
2023-02-14T14:30:07.476Z,9.10
2023-02-14T14:32:39.189Z,9.10
2023-02-14T14:35:15.785Z,9.20
2023-02-14T14:37:56.433Z,9.20
2023-02-14T14:40:29.606Z,9.20
2023-02-14T14:43:17.946Z,9.10
2023-02-14T14:45:49.513Z,9.10
2023-02-14T14:48:24.983Z,8.90
2023-02-14T14:50:54.977Z,8.90
2023-02-14T14:53:30.164Z,8.90
2023-02-14T14:56:00.039Z,8.90
2023-02-14T14:58:41.683Z,8.90
2023-02-14T15:01:19.642Z,8.90
2023-02-14T15:03:49.873Z,8.70
2023-02-14T15:06:22.803Z,8.50
2023-02-14T15:08:55.484Z,8.50
2023-02-14T15:11:47.522Z,8.50
2023-02-14T15:14:19.897Z,8.50
2023-02-14T15:16:56.634Z,8.50
2023-02-14T15:19:38.590Z,8.50
2023-02-14T15:22:10.908Z,8.50
2023-02-14T15:24:41.306Z,8.40
2023-02-14T15:27:15.074Z,8.40
2023-02-14T15:29:55.775Z,8.50
2023-02-14T15:32:26.628Z,8.40
2023-02-14T15:34:58.259Z,8.40
2023-02-14T15:37:28.356Z,8.40
2023-02-14T15:40:07.572Z,8.30
2023-02-14T15:42:45.061Z,8.20
2023-02-14T15:45:29.582Z,8.10
2023-02-14T15:48:07.551Z,8.00
2023-02-14T15:50:39.605Z,7.90
2023-02-14T15:53:28.446Z,7.90
2023-02-14T15:56:17.386Z,7.80
2023-02-14T15:58:47.480Z,7.70
2023-02-14T16:01:19.968Z,7.70
2023-02-14T16:03:52.472Z,7.70
2023-02-14T16:06:33.766Z,7.60
2023-02-14T16:09:11.186Z,7.60
2023-02-14T16:11:40.735Z,7.40
2023-02-14T16:14:30.098Z,7.30
2023-02-14T16:17:13.976Z,7.30
2023-02-14T16:19:46.944Z,7.20
2023-02-14T16:22:29.574Z,7.20
2023-02-14T16:25:01.239Z,7.10
2023-02-14T16:27:30.759Z,7.00
2023-02-14T16:30:05.717Z,7.00
2023-02-14T16:32:38.322Z,6.90
2023-02-14T16:35:10.830Z,6.80
2023-02-14T16:37:40.364Z,6.70
2023-02-14T16:40:18.018Z,6.60
2023-02-14T16:42:48.743Z,6.60
2023-02-14T16:45:21.819Z,6.50
2023-02-14T16:47:51.403Z,6.40
2023-02-14T16:50:22.712Z,6.30
2023-02-14T16:52:54.748Z,6.30
2023-02-14T16:55:25.897Z,6.20
2023-02-14T16:57:55.344Z,6.10
2023-02-14T17:00:34.171Z,6.00
2023-02-14T17:03:06.865Z,6.00
2023-02-14T17:05:37.086Z,5.90
2023-02-14T17:08:09.157Z,5.80
2023-02-14T17:10:40.344Z,5.80
2023-02-14T17:13:11.926Z,5.70
2023-02-14T17:15:43.369Z,5.60
2023-02-14T17:18:15.626Z,5.50
2023-02-14T17:20:46.372Z,5.50
2023-02-14T17:23:20.105Z,5.40
2023-02-14T17:25:49.508Z,5.30
2023-02-14T17:28:18.863Z,5.30
2023-02-14T17:30:50.131Z,5.20
2023-02-14T17:36:12.370Z,5.10
2023-02-14T17:38:43.864Z,5.00
2023-02-14T17:41:25.157Z,4.90
2023-02-14T17:43:59.033Z,4.80
2023-02-14T17:46:33.817Z,4.80
2023-02-14T17:49:04.614Z,4.70
2023-02-14T17:51:34.011Z,4.60
2023-02-14T17:54:03.380Z,4.60
2023-02-14T17:56:35.329Z,4.50
2023-02-14T17:59:06.780Z,4.50
2023-02-14T18:01:36.372Z,4.50
2023-02-14T18:04:09.248Z,4.40
2023-02-14T18:06:40.247Z,4.30
2023-02-14T18:09:10.240Z,4.20
2023-02-14T18:11:42.273Z,4.20
2023-02-14T18:14:16.276Z,4.20
2023-02-14T18:16:46.854Z,4.20
2023-02-14T18:19:16.871Z,4.10
2023-02-14T18:21:47.098Z,4.10
2023-02-14T18:24:17.610Z,4.00
2023-02-14T18:26:47.043Z,4.00
2023-02-14T18:29:17.444Z,4.00
2023-02-14T18:31:47.267Z,3.90
2023-02-14T18:34:16.564Z,3.90
2023-02-14T18:36:46.007Z,3.90
2023-02-14T18:39:15.624Z,3.80
2023-02-14T18:41:47.338Z,3.80
2023-02-14T18:44:20.677Z,3.80
2023-02-14T18:46:51.361Z,3.70
2023-02-14T18:49:23.197Z,3.70
2023-02-14T18:51:54.765Z,3.70
2023-02-14T18:54:26.208Z,3.70
2023-02-14T18:56:55.659Z,3.60
2023-02-14T18:59:25.635Z,3.60
2023-02-14T19:01:56.152Z,3.60
2023-02-14T19:04:26.788Z,3.50
2023-02-14T19:06:58.212Z,3.50
2023-02-14T19:09:31.412Z,3.40
2023-02-14T19:12:02.386Z,3.40
2023-02-14T19:14:32.389Z,3.40
2023-02-14T19:17:13.314Z,3.30
2023-02-14T19:19:44.111Z,3.30
2023-02-14T19:25:09.310Z,3.20
2023-02-14T19:27:40.644Z,3.20
2023-02-14T19:30:12.470Z,3.20
2023-02-14T19:32:41.951Z,3.20
2023-02-14T19:35:13.130Z,3.10
2023-02-14T19:37:42.504Z,3.10
2023-02-14T19:40:13.520Z,3.10
2023-02-14T19:42:42.883Z,3.00
2023-02-14T19:45:12.802Z,3.00
2023-02-14T19:47:47.344Z,3.00
2023-02-14T19:53:08.473Z,2.90
2023-02-14T19:55:39.518Z,2.90
2023-02-14T19:58:10.594Z,2.90
2023-02-14T20:00:40.063Z,2.90
2023-02-14T20:03:09.506Z,2.80
2023-02-14T20:08:42.627Z,2.80
2023-02-14T20:11:22.990Z,2.80
2023-02-14T20:19:56.185Z,2.70
2023-02-14T20:22:29.013Z,2.70
2023-02-14T20:24:58.862Z,2.70
2023-02-14T20:27:29.702Z,2.60
2023-02-14T20:29:59.091Z,2.60
2023-02-14T20:32:28.538Z,2.60
2023-02-14T20:35:00.664Z,2.60
2023-02-14T20:37:33.100Z,2.60
2023-02-14T20:43:03.130Z,2.50
2023-02-14T20:45:53.727Z,2.50
2023-02-14T20:48:35.425Z,2.50
2023-02-14T20:51:31.118Z,2.50
2023-02-14T20:54:05.901Z,2.40
2023-02-14T20:56:42.326Z,2.40
2023-02-14T20:59:16.078Z,2.40
2023-02-14T21:02:01.108Z,2.40
2023-02-14T21:04:31.968Z,2.40
2023-02-14T21:07:03.044Z,2.40
2023-02-14T21:09:52.604Z,2.30
2023-02-14T21:12:22.027Z,2.30
2023-02-14T21:14:52.956Z,2.30
2023-02-14T21:17:22.387Z,2.30
2023-02-14T21:19:51.744Z,2.30
2023-02-14T21:22:21.160Z,2.20
2023-02-14T21:24:50.512Z,2.20
2023-02-14T21:27:21.507Z,2.20
2023-02-14T21:29:51.896Z,2.20
2023-02-14T21:32:22.896Z,2.20
2023-02-14T21:34:55.372Z,2.10
2023-02-14T21:37:26.167Z,2.10
2023-02-14T21:39:55.493Z,2.10
2023-02-14T21:42:26.202Z,2.10
2023-02-14T21:45:13.119Z,2.00
2023-02-14T21:47:42.594Z,2.00
2023-02-14T21:50:30.054Z,2.00
2023-02-14T21:53:01.539Z,2.00
2023-02-14T21:55:30.848Z,2.00
2023-02-14T21:58:01.923Z,2.00
2023-02-14T22:00:31.218Z,2.00
2023-02-14T22:03:00.827Z,1.90
2023-02-14T22:05:30.274Z,1.90
2023-02-14T22:07:59.638Z,1.90
2023-02-14T22:10:29.692Z,1.90
2023-02-14T22:12:59.014Z,1.90
2023-02-14T22:15:28.459Z,1.80
2023-02-14T22:17:59.014Z,1.80
2023-02-14T22:20:28.945Z,1.80
2023-02-14T22:22:59.600Z,1.80
2023-02-14T22:25:29.629Z,1.80
2023-02-14T22:27:59.289Z,1.80
2023-02-14T22:30:29.976Z,1.80
2023-02-14T22:32:59.401Z,1.70
2023-02-14T22:38:08.634Z,1.70
2023-02-14T22:40:38.969Z,1.70
2023-02-14T22:43:08.518Z,1.60
2023-02-14T22:45:37.866Z,1.60
2023-02-14T22:48:07.267Z,1.60
2023-02-14T22:50:37.685Z,1.60
2023-02-14T22:53:08.424Z,1.60
2023-02-14T22:55:37.875Z,1.50
2023-02-14T22:58:18.728Z,1.50
2023-02-14T23:00:55.465Z,1.50
2023-02-14T23:03:25.476Z,1.50
2023-02-14T23:09:32.645Z,1.50
2023-02-14T23:12:02.270Z,1.40
2023-02-14T23:14:50.012Z,1.40
2023-02-14T23:17:23.959Z,1.40
2023-02-14T23:22:58.985Z,1.40
2023-02-14T23:25:29.182Z,1.40
2023-02-14T23:27:59.656Z,1.30
2023-02-14T23:30:29.063Z,1.30
2023-02-14T23:33:01.156Z,1.30
2023-02-14T23:38:35.571Z,1.30
2023-02-14T23:41:30.002Z,1.30
2023-02-14T23:43:59.475Z,1.30
2023-02-14T23:46:28.969Z,1.30
2023-02-14T23:48:58.348Z,1.30
2023-02-14T23:51:27.762Z,1.30
2023-02-14T23:53:57.147Z,1.30
2023-02-14T23:56:26.550Z,1.30
2023-02-14T23:58:55.995Z,1.30
